Time;durP1;ratioP1;P1;durP2;ratioP2;P2;SDS_P1;SDS_P2;PMS_P1;PMS_P2;Temp;Humidity;BMP_temperature;BMP_pressure;BME280_temperature;BME280_humidity;BME280_pressure;Samples;Min_cycle;Max_cycle;Signal;HPM_P1;HPM_P2
2023/02/04 00:02:21;;;;;;;;;;;;;;;-0.03;88.40;100770.64;105612;1285;60481;-81
2023/02/04 00:05:07;;;;;;;;;;;;;;;-0.06;88.35;100783.79;105637;1285;75289;-81
2023/02/04 00:07:54;;;;;;;;;;;;;;;-0.07;88.17;100805.10;105572;1285;67087;-81
2023/02/04 00:10:40;;;;;;;;;;;;;;;-0.09;88.24;100820.96;105604;1285;71675;-81
2023/02/04 00:13:26;;;;;;;;;;;;;;;-0.12;88.29;100837.83;105443;1285;62070;-81
2023/02/04 00:16:12;;;;;;;;;;;;;;;-0.15;88.26;100845.52;105561;1286;63942;-81
2023/02/04 00:18:58;;;;;;;;;;;;;;;-0.15;88.35;100860.24;105479;1285;78348;-81
2023/02/04 00:21:44;;;;;;;;;;;;;;;-0.16;88.35;100875.29;105455;1285;67241;-81
2023/02/04 00:24:31;;;;;;;;;;;;;;;-0.16;88.34;100898.49;105495;1290;71245;-81
2023/02/04 00:27:17;;;;;;;;;;;;;;;-0.17;88.22;100925.25;105630;1285;61988;-81
2023/02/04 00:30:04;;;;;;;;;;;;;;;-0.17;88.33;100941.35;105477;1285;62801;-81
2023/02/04 00:32:53;;;;;;;;;;;;;;;-0.18;88.28;100971.30;105448;1288;76125;-81
2023/02/04 00:35:39;;;;;;;;;;;;;;;-0.20;88.17;100995.96;105470;1285;68679;-81
2023/02/04 00:38:25;;;;;;;;;;;;;;;-0.22;88.04;101014.85;105639;1285;71465;-81
2023/02/04 00:41:11;;;;;;;;;;;;;;;-0.26;88.00;101021.34;105611;1285;61887;-80
2023/02/04 00:43:57;;;;;;;;;;;;;;;-0.25;87.99;101035.25;105514;1285;62018;-80
2023/02/04 00:46:43;;;;;;;;;;;;;;;-0.25;88.03;101044.91;105459;1285;75718;-81
2023/02/04 00:49:29;;;;;;;;;;;;;;;-0.24;87.97;101062.56;105492;1285;68363;-81
2023/02/04 00:52:15;;;;;;;;;;;;;;;-0.26;87.82;101078.44;105394;1285;71174;-80
2023/02/04 00:55:01;;;;;;;;;;;;;;;-0.27;87.84;101092.95;105603;1285;62181;-81
2023/02/04 00:57:47;;;;;;;;;;;;;;;-0.28;87.78;101104.45;105589;1285;62025;-81
2023/02/04 01:00:33;;;;;;;;;;;;;;;-0.29;87.75;101116.59;105542;1285;73959;-81
2023/02/04 01:03:20;;;;;;;;;;;;;;;-0.31;87.73;101122.10;105562;1289;68609;-81
2023/02/04 01:06:06;;;;;;;;;;;;;;;-0.34;87.64;101142.69;105465;1285;71379;-81
2023/02/04 01:08:52;;;;;;;;;;;;;;;-0.37;87.62;101153.91;105563;1286;62171;-81
2023/02/04 01:11:38;;;;;;;;;;;;;;;-0.40;87.65;101167.33;105626;1286;62057;-80
2023/02/04 01:14:24;;;;;;;;;;;;;;;-0.43;87.68;101178.25;105640;1285;74995;-80
2023/02/04 01:17:10;;;;;;;;;;;;;;;-0.45;87.57;101191.05;105648;1285;70852;-80
2023/02/04 01:19:56;;;;;;;;;;;;;;;-0.46;87.51;101199.30;105633;1286;71373;-80
2023/02/04 01:22:42;;;;;;;;;;;;;;;-0.48;87.40;101210.23;105346;1285;61987;-80
2023/02/04 01:25:28;;;;;;;;;;;;;;;-0.50;87.40;101226.40;105475;1286;62098;-80
2023/02/04 01:28:14;;;;;;;;;;;;;;;-0.52;87.34;101237.86;105599;1285;78097;-80
2023/02/04 01:31:00;;;;;;;;;;;;;;;-0.53;87.42;101257.13;105418;1285;67359;-80
2023/02/04 01:33:46;;;;;;;;;;;;;;;-0.53;87.46;101270.66;105452;1285;71019;-80
2023/02/04 01:36:33;;;;;;;;;;;;;;;-0.55;87.39;101287.23;105645;1285;60419;-80
2023/02/04 01:39:19;;;;;;;;;;;;;;;-0.54;87.45;101298.92;105451;1285;61821;-80
2023/02/04 01:42:05;;;;;;;;;;;;;;;-0.54;87.43;101311.97;105692;1286;73222;-80
2023/02/04 01:44:52;;;;;;;;;;;;;;;-0.54;87.43;101325.85;105649;1288;69470;-80
2023/02/04 01:47:38;;;;;;;;;;;;;;;-0.55;87.47;101334.63;105569;1285;71285;-80
2023/02/04 01:50:25;;;;;;;;;;;;;;;-0.54;87.38;101347.36;105628;1288;60165;-80
2023/02/04 01:53:11;;;;;;;;;;;;;;;-0.53;87.46;101361.63;105538;1285;59379;-80
2023/02/04 01:55:57;;;;;;;;;;;;;;;-0.51;87.38;101372.02;105503;1285;76992;-80
2023/02/04 01:58:44;;;;;;;;;;;;;;;-0.52;87.35;101381.47;105652;1286;67401;-80
2023/02/04 02:01:47;;;;;;;;;;;;;;;-0.53;87.31;101391.94;105397;1285;71462;-80
2023/02/04 02:04:33;;;;;;;;;;;;;;;-0.53;87.38;101405.31;105622;1286;61996;-80
2023/02/04 02:07:19;;;;;;;;;;;;;;;-0.52;87.38;101414.65;105490;1285;61984;-80
2023/02/04 02:10:07;;;;;;;;;;;;;;;-0.53;87.36;101426.98;105409;1289;77797;-80
2023/02/04 02:12:54;;;;;;;;;;;;;;;-0.53;87.35;101437.80;105431;1290;69114;-80
2023/02/04 02:15:41;;;;;;;;;;;;;;;-0.54;87.25;101444.89;105499;1285;71176;-80
2023/02/04 02:18:27;;;;;;;;;;;;;;;-0.54;87.29;101461.65;105443;1286;60496;-80
2023/02/04 02:21:15;;;;;;;;;;;;;;;-0.55;87.30;101464.14;105370;1285;62059;-81
2023/02/04 02:24:21;;;;;;;;;;;;;;;-0.56;87.33;101470.21;105643;1285;75015;-80
2023/02/04 02:27:08;;;;;;;;;;;;;;;-0.57;87.28;101478.30;105647;1290;68824;-80
2023/02/04 02:29:54;;;;;;;;;;;;;;;-0.57;87.27;101489.45;105436;1285;71082;-80
2023/02/04 02:32:40;;;;;;;;;;;;;;;-0.59;87.29;101502.61;105664;1286;61957;-80
2023/02/04 02:35:27;;;;;;;;;;;;;;;-0.60;87.25;101515.76;105502;1290;62155;-80
2023/02/04 02:38:14;;;;;;;;;;;;;;;-0.61;87.26;101527.56;105560;1287;78549;-80
2023/02/04 02:41:01;;;;;;;;;;;;;;;-0.62;87.29;101544.11;105645;1288;68826;-80
2023/02/04 02:43:47;;;;;;;;;;;;;;;-0.62;87.26;101557.65;105412;1289;71244;-80
2023/02/04 02:46:33;;;;;;;;;;;;;;;-0.64;87.26;101566.89;105477;1286;62097;-80
2023/02/04 02:49:20;;;;;;;;;;;;;;;-0.64;87.21;101579.39;105401;1291;254336;-80
2023/02/04 02:52:08;;;;;;;;;;;;;;;-0.65;87.24;101590.87;105443;1289;74217;-80
2023/02/04 02:54:54;;;;;;;;;;;;;;;-0.67;87.24;101597.73;105608;1285;67131;-80
2023/02/04 02:57:40;;;;;;;;;;;;;;;-0.68;87.21;101617.84;105425;1286;71414;-80
2023/02/04 03:00:27;;;;;;;;;;;;;;;-0.70;87.20;101630.29;105585;1285;61868;-80
2023/02/04 03:03:19;;;;;;;;;;;;;;;-0.70;87.26;101640.58;105454;1286;60048;-80
2023/02/04 03:06:14;;;;;;;;;;;;;;;-0.71;87.20;101650.70;105529;1288;73227;-80
2023/02/04 03:09:00;;;;;;;;;;;;;;;-0.72;87.16;101664.54;105643;1285;66710;-80
2023/02/04 03:11:46;;;;;;;;;;;;;;;-0.74;87.19;101679.70;105455;1284;71157;-80
2023/02/04 03:14:34;;;;;;;;;;;;;;;-0.75;87.15;101688.27;105584;1284;62082;-80
2023/02/04 03:17:21;;;;;;;;;;;;;;;-0.76;87.17;101696.20;105647;1289;60154;-80
2023/02/04 03:20:07;;;;;;;;;;;;;;;-0.75;87.24;101707.39;105605;1290;74717;-80
2023/02/04 03:22:54;;;;;;;;;;;;;;;-0.75;87.24;101719.27;105615;1287;71448;-80
2023/02/04 03:25:40;;;;;;;;;;;;;;;-0.75;87.18;101729.26;105444;1291;71189;-80
2023/02/04 03:28:26;;;;;;;;;;;;;;;-0.75;87.19;101729.91;105454;1285;60127;-80
2023/02/04 03:31:13;;;;;;;;;;;;;;;-0.76;87.21;101735.98;105597;1289;62908;-80
2023/02/04 03:33:59;;;;;;;;;;;;;;;-0.76;87.21;101760.16;105615;1286;78219;-80
2023/02/04 03:36:45;;;;;;;;;;;;;;;-0.75;87.22;101770.03;105607;1285;68886;-81
2023/02/04 03:39:31;;;;;;;;;;;;;;;-0.76;87.24;101778.65;105592;1286;72613;-80
2023/02/04 03:42:17;;;;;;;;;;;;;;;-0.74;87.20;101783.98;105479;1286;61965;-80
2023/02/04 03:45:03;;;;;;;;;;;;;;;-0.74;87.19;101783.95;105512;1286;61937;-80
2023/02/04 03:47:49;;;;;;;;;;;;;;;-0.75;87.20;101789.16;105450;1289;76858;-80
2023/02/04 03:50:35;;;;;;;;;;;;;;;-0.75;87.23;101792.73;91184;1286;20003194;-80
2023/02/04 03:53:22;;;;;;;;;;;;;;;-0.75;87.17;101799.66;105605;1288;74190;-80
2023/02/04 03:56:09;;;;;;;;;;;;;;;-0.75;87.27;101808.98;105649;1285;67887;-80
2023/02/04 03:58:55;;;;;;;;;;;;;;;-0.74;87.27;101818.55;105605;1285;73110;-80
2023/02/04 04:01:41;;;;;;;;;;;;;;;-0.73;87.23;101820.94;105638;1285;62025;-80
2023/02/04 04:04:28;;;;;;;;;;;;;;;-0.71;87.30;101822.23;105489;1285;61800;-80
2023/02/04 04:07:14;;;;;;;;;;;;;;;-0.66;87.28;101832.79;105599;1289;74089;-80
2023/02/04 04:10:00;;;;;;;;;;;;;;;-0.62;87.35;101839.73;105476;1291;67731;-80
2023/02/04 04:12:46;;;;;;;;;;;;;;;-0.60;87.33;101845.25;105578;1286;71399;-80
2023/02/04 04:15:32;;;;;;;;;;;;;;;-0.58;87.33;101850.28;105644;1285;62501;-80
2023/02/04 04:18:18;;;;;;;;;;;;;;;-0.56;87.35;101858.19;105601;1289;62077;-80
2023/02/04 04:21:04;;;;;;;;;;;;;;;-0.56;87.30;101864.79;105628;1286;76715;-80
2023/02/04 04:23:50;;;;;;;;;;;;;;;-0.55;87.36;101867.02;105626;1286;67316;-80
2023/02/04 04:26:36;;;;;;;;;;;;;;;-0.56;87.26;101875.64;105606;1286;71122;-80
2023/02/04 04:29:22;;;;;;;;;;;;;;;-0.56;87.29;101878.34;105613;1285;60159;-80
2023/02/04 04:32:09;;;;;;;;;;;;;;;-0.56;87.36;101880.02;105629;1285;62038;-80
2023/02/04 04:34:55;;;;;;;;;;;;;;;-0.55;87.35;101888.70;105669;1285;76747;-80
2023/02/04 04:37:41;;;;;;;;;;;;;;;-0.55;87.30;101896.14;105593;1285;69061;-80
2023/02/04 04:40:27;;;;;;;;;;;;;;;-0.55;87.31;101902.09;105601;1285;71895;-80
2023/02/04 04:43:13;;;;;;;;;;;;;;;-0.55;87.27;101905.30;105624;1285;61069;-80
2023/02/04 04:46:00;;;;;;;;;;;;;;;-0.56;87.30;101911.19;105669;1289;62979;-80
2023/02/04 04:48:46;;;;;;;;;;;;;;;-0.56;87.31;101915.77;105641;1285;75702;-80
2023/02/04 04:51:32;;;;;;;;;;;;;;;-0.56;87.31;101920.15;105285;1289;67345;-80
2023/02/04 04:54:18;;;;;;;;;;;;;;;-0.57;87.28;101930.28;105285;1285;71200;-80
2023/02/04 04:57:05;;;;;;;;;;;;;;;-0.56;87.29;101938.08;105417;1289;62244;-80
2023/02/04 04:59:51;;;;;;;;;;;;;;;-0.59;87.25;101950.16;105450;1285;59534;-80
2023/02/04 05:02:37;;;;;;;;;;;;;;;-0.60;87.24;101951.42;105317;1285;75780;-80
2023/02/04 05:05:23;;;;;;;;;;;;;;;-0.63;87.19;101956.55;105459;1284;67163;-81
2023/02/04 05:08:12;;;;;;;;;;;;;;;-0.64;87.26;101953.94;105262;1288;74078;-80
2023/02/04 05:10:58;;;;;;;;;;;;;;;-0.65;87.31;101958.14;105266;1286;61932;-80
2023/02/04 05:13:44;;;;;;;;;;;;;;;-0.66;87.32;101963.52;105467;1285;62141;-80
2023/02/04 05:16:30;;;;;;;;;;;;;;;-0.68;87.17;101968.13;105299;1285;74948;-80
2023/02/04 05:19:17;;;;;;;;;;;;;;;-0.70;87.20;101979.41;105300;1285;67681;-80
2023/02/04 05:22:03;;;;;;;;;;;;;;;-0.72;87.14;101998.27;105359;1285;71468;-80
2023/02/04 05:24:50;;;;;;;;;;;;;;;-0.74;87.11;102003.73;105301;1285;61967;-80
2023/02/04 05:27:36;;;;;;;;;;;;;;;-0.76;87.10;102010.92;105454;1285;61865;-79
2023/02/04 05:30:22;;;;;;;;;;;;;;;-0.77;87.07;102021.33;105321;1286;73996;-79
2023/02/04 05:33:08;;;;;;;;;;;;;;;-0.78;87.12;102037.40;105433;1285;67252;-80
2023/02/04 05:35:55;;;;;;;;;;;;;;;-0.76;87.09;102049.14;105430;1289;71585;-80
2023/02/04 05:38:41;;;;;;;;;;;;;;;-0.76;87.08;102057.63;105423;1289;62079;-80
2023/02/04 05:41:27;;;;;;;;;;;;;;;-0.75;87.07;102062.08;105255;1285;61944;-80
2023/02/04 05:44:13;;;;;;;;;;;;;;;-0.78;86.96;102065.33;105441;1285;74804;-80
2023/02/04 05:46:59;;;;;;;;;;;;;;;-0.80;87.01;102077.39;105448;1284;67160;-81
2023/02/04 05:49:45;;;;;;;;;;;;;;;-0.81;86.92;102083.10;105288;1285;71391;-80
2023/02/04 05:52:31;;;;;;;;;;;;;;;-0.80;86.99;102086.35;105485;1288;61907;-80
2023/02/04 05:55:17;;;;;;;;;;;;;;;-0.80;87.05;102094.17;105326;1287;59410;-80
2023/02/04 05:58:04;;;;;;;;;;;;;;;-0.80;86.92;102099.74;105292;1284;76736;-80
2023/02/04 06:00:50;;;;;;;;;;;;;;;-0.82;86.88;102108.58;105472;1288;69980;-80
2023/02/04 06:03:36;;;;;;;;;;;;;;;-0.85;86.87;102113.19;105418;1285;73963;-80
2023/02/04 06:06:22;;;;;;;;;;;;;;;-0.86;86.87;102113.64;105466;1285;62144;-80
2023/02/04 06:09:08;;;;;;;;;;;;;;;-0.88;86.84;102117.56;105424;1285;62077;-80
2023/02/04 06:11:54;;;;;;;;;;;;;;;-0.91;86.86;102124.67;105244;1290;76916;-80
2023/02/04 06:14:41;;;;;;;;;;;;;;;-0.93;86.86;102126.94;105354;1291;67378;-79
2023/02/04 06:17:27;;;;;;;;;;;;;;;-0.95;86.91;102136.98;105440;1285;71034;-79
2023/02/04 06:20:13;;;;;;;;;;;;;;;-0.97;86.86;102145.00;105281;1285;62010;-80
2023/02/04 06:23:00;;;;;;;;;;;;;;;-0.99;86.85;102155.05;105234;1286;62424;-80
2023/02/04 06:25:47;;;;;;;;;;;;;;;-1.02;86.84;102170.81;105268;1285;78328;-80
2023/02/04 06:28:33;;;;;;;;;;;;;;;-1.03;86.78;102179.23;105261;1285;67620;-80
2023/02/04 06:31:19;;;;;;;;;;;;;;;-1.03;86.87;102189.90;105464;1285;71542;-80
2023/02/04 06:34:06;;;;;;;;;;;;;;;-1.01;86.94;102198.96;105272;1285;62203;-80
2023/02/04 06:36:52;;;;;;;;;;;;;;;-1.00;86.85;102205.98;105445;1285;61970;-79
2023/02/04 06:39:38;;;;;;;;;;;;;;;-0.98;86.88;102213.67;105429;1285;74083;-80
2023/02/04 06:42:24;;;;;;;;;;;;;;;-0.96;86.93;102225.77;105262;1285;68531;-80
2023/02/04 06:45:10;;;;;;;;;;;;;;;-0.95;86.91;102228.08;105437;1286;71171;-80
2023/02/04 06:47:57;;;;;;;;;;;;;;;-0.93;86.90;102237.63;105319;1291;61976;-80
2023/02/04 06:50:43;;;;;;;;;;;;;;;-0.89;87.03;102242.44;105305;1285;61971;-80
2023/02/04 06:53:29;;;;;;;;;;;;;;;-0.86;86.98;102252.63;105311;1290;74060;-80
2023/02/04 06:56:15;;;;;;;;;;;;;;;-0.82;86.98;102256.72;105322;1284;69278;-80
2023/02/04 06:59:01;;;;;;;;;;;;;;;-0.77;87.04;102258.89;105460;1286;71317;-80
2023/02/04 07:01:48;;;;;;;;;;;;;;;-0.72;87.07;102267.98;105321;1285;61778;-80
2023/02/04 07:04:35;;;;;;;;;;;;;;;-0.68;87.06;102271.91;105451;1284;62026;-80
2023/02/04 07:07:21;;;;;;;;;;;;;;;-0.64;87.02;102275.15;105417;1285;76177;-80
2023/02/04 07:10:07;;;;;;;;;;;;;;;-0.62;86.97;102279.89;105483;1284;67907;-80
2023/02/04 07:12:53;;;;;;;;;;;;;;;-0.59;87.02;102284.80;105478;1285;72025;-80
2023/02/04 07:15:39;;;;;;;;;;;;;;;-0.56;87.04;102290.23;105321;1285;61959;-80
2023/02/04 07:18:26;;;;;;;;;;;;;;;-0.53;87.01;102299.69;105507;1284;61346;-80
2023/02/04 07:21:12;;;;;;;;;;;;;;;-0.49;87.03;102305.79;105505;1285;75316;-80
2023/02/04 07:23:59;;;;;;;;;;;;;;;-0.45;87.01;102303.31;105426;1285;69029;-80
2023/02/04 07:26:45;;;;;;;;;;;;;;;-0.43;87.00;102303.79;105251;1291;74179;-80
2023/02/04 07:29:32;;;;;;;;;;;;;;;-0.40;86.97;102307.66;105307;1285;62185;-80
2023/02/04 07:32:18;;;;;;;;;;;;;;;-0.36;86.97;102312.63;105386;1285;62069;-80
2023/02/04 07:35:05;;;;;;;;;;;;;;;-0.32;87.05;102319.31;105469;1284;76812;-80
2023/02/04 07:37:51;;;;;;;;;;;;;;;-0.27;87.03;102324.30;105245;1285;67282;-80
2023/02/04 07:40:38;;;;;;;;;;;;;;;-0.22;87.01;102330.02;105262;1289;72823;-80
2023/02/04 07:43:24;;;;;;;;;;;;;;;-0.18;87.07;102331.44;105433;1285;62082;-80
2023/02/04 07:46:10;;;;;;;;;;;;;;;-0.12;87.05;102336.48;105434;1287;61921;-79
2023/02/04 07:48:56;;;;;;;;;;;;;;;-0.07;87.05;102340.34;105286;1289;74176;-79
2023/02/04 07:51:43;;;;;;;;;;;;;;;-0.05;86.94;102347.08;105431;1285;68543;-80
2023/02/04 07:54:29;;;;;;;;;;;;;;;-0.05;86.91;102350.98;105331;1285;71190;-80
2023/02/04 07:57:15;;;;;;;;;;;;;;;0.00;86.98;102352.93;105432;1284;61626;-80
2023/02/04 08:00:02;;;;;;;;;;;;;;;0.06;86.98;102355.40;105426;1284;62874;-80
2023/02/04 08:02:48;;;;;;;;;;;;;;;0.11;86.90;102355.19;105307;1285;74046;-80
2023/02/04 08:05:34;;;;;;;;;;;;;;;0.11;86.89;102358.23;105256;1285;68505;-80
2023/02/04 08:08:20;;;;;;;;;;;;;;;0.09;86.78;102363.43;105358;1284;70478;-80
2023/02/04 08:11:06;;;;;;;;;;;;;;;0.09;86.82;102371.73;105442;1287;62050;-80
2023/02/04 08:13:52;;;;;;;;;;;;;;;0.16;86.91;102374.81;105289;1284;60195;-80
2023/02/04 08:16:39;;;;;;;;;;;;;;;0.38;86.94;102379.90;105405;1285;74147;-80
2023/02/04 08:19:25;;;;;;;;;;;;;;;0.58;86.77;102387.58;105452;1287;67410;-80
2023/02/04 08:22:11;;;;;;;;;;;;;;;0.65;86.63;102387.95;105395;1285;71071;-80
2023/02/04 08:24:57;;;;;;;;;;;;;;;0.61;86.63;102398.61;105444;1284;62142;-80
2023/02/04 08:27:44;;;;;;;;;;;;;;;0.56;86.59;102396.95;105430;1288;60391;-79
2023/02/04 08:30:30;;;;;;;;;;;;;;;0.52;86.64;102403.20;105300;1285;74162;-79
2023/02/04 08:33:16;;;;;;;;;;;;;;;0.47;86.59;102406.18;105292;1285;71514;-79
2023/02/04 08:36:03;;;;;;;;;;;;;;;0.44;86.69;102413.27;105266;1289;71300;-79
2023/02/04 08:41:06;;;;;;;;;;;;;;;0.39;86.59;102420.48;33379;1291;20062482;-79
2023/02/04 08:44:22;;;;;;;;;;;;;;;0.36;86.79;102428.29;76311;1284;20052199;-80
2023/02/04 08:47:08;;;;;;;;;;;;;;;0.35;86.79;102436.38;105308;1285;73102;-79
2023/02/04 08:49:54;;;;;;;;;;;;;;;0.35;86.70;102440.45;105328;1285;62273;-80
2023/02/04 08:52:41;;;;;;;;;;;;;;;0.34;86.70;102440.77;105406;1287;61906;-79
2023/02/04 08:55:27;;;;;;;;;;;;;;;0.35;86.74;102445.02;105316;1287;74197;-80
2023/02/04 08:58:13;;;;;;;;;;;;;;;0.37;86.83;102449.91;105453;1284;68354;-79
2023/02/04 09:00:59;;;;;;;;;;;;;;;0.39;86.76;102448.48;105313;1285;72749;-80
2023/02/04 09:03:46;;;;;;;;;;;;;;;0.41;86.76;102453.34;105366;1284;63320;-79
2023/02/04 09:06:32;;;;;;;;;;;;;;;0.42;86.71;102448.64;105406;1289;61906;-79
2023/02/04 09:09:18;;;;;;;;;;;;;;;0.44;86.70;102449.44;105403;1285;74316;-79
2023/02/04 09:12:04;;;;;;;;;;;;;;;0.47;86.67;102452.84;105485;1284;71425;-79
2023/02/04 09:14:50;;;;;;;;;;;;;;;0.49;86.68;102455.46;105495;1285;71369;-80
2023/02/04 09:17:37;;;;;;;;;;;;;;;0.49;86.59;102458.58;105447;1288;63214;-79
2023/02/04 09:20:23;;;;;;;;;;;;;;;0.51;86.60;102461.73;105511;1284;61923;-79
2023/02/04 09:23:11;;;;;;;;;;;;;;;0.54;86.57;102464.20;105491;1285;74009;-79
2023/02/04 09:25:56;;;;;;;;;;;;;;;0.56;86.52;102468.09;105782;1285;68226;-80
2023/02/04 09:28:43;;;;;;;;;;;;;;;0.60;86.63;102470.64;105335;1285;71189;-79
2023/02/04 09:31:29;;;;;;;;;;;;;;;0.64;86.63;102472.58;105470;1284;61927;-80
2023/02/04 09:34:15;;;;;;;;;;;;;;;0.68;86.58;102474.30;105490;1286;61976;-80
2023/02/04 09:37:01;;;;;;;;;;;;;;;0.69;86.48;102481.00;105281;1285;73857;-79
2023/02/04 09:39:47;;;;;;;;;;;;;;;0.72;86.51;102481.64;105372;1285;67162;-79
2023/02/04 09:42:33;;;;;;;;;;;;;;;0.76;86.43;102487.81;105414;1283;71179;-80
2023/02/04 09:45:28;;;;;;;;;;;;;;;0.79;86.48;102487.61;105278;1285;62172;-79
2023/02/04 09:48:14;;;;;;;;;;;;;;;0.79;86.37;102487.84;105352;1285;59528;-80
2023/02/04 09:51:06;;;;;;;;;;;;;;;0.79;85.78;102488.84;105472;1285;77386;-79
2023/02/04 09:53:53;;;;;;;;;;;;;;;0.76;85.78;102487.81;106662;1284;68623;-80
2023/02/04 09:56:39;;;;;;;;;;;;;;;0.76;85.98;102492.23;105869;1284;71913;-80
2023/02/04 09:59:26;;;;;;;;;;;;;;;0.78;85.75;102497.29;105637;1285;62453;-79
2023/02/04 10:02:24;;;;;;;;;;;;;;;0.79;85.72;102501.59;105329;1285;62599;-79
2023/02/04 10:05:23;;;;;;;;;;;;;;;0.82;85.86;102504.10;105422;1284;75227;-80
2023/02/04 10:08:14;;;;;;;;;;;;;;;0.85;86.06;102507.96;105376;1285;68644;-79
2023/02/04 10:11:01;;;;;;;;;;;;;;;0.87;85.75;102510.98;105449;1285;72984;-79
2023/02/04 10:13:52;;;;;;;;;;;;;;;0.88;85.41;102511.06;105434;1285;60586;-80
2023/02/04 10:16:41;;;;;;;;;;;;;;;0.90;85.64;102517.25;105334;1285;61504;-80
2023/02/04 10:19:29;;;;;;;;;;;;;;;0.91;85.56;102521.25;105441;1289;74030;-79
2023/02/04 10:22:19;;;;;;;;;;;;;;;0.95;85.78;102523.15;105270;1287;67847;-79
2023/02/04 10:25:13;;;;;;;;;;;;;;;1.02;85.89;102526.53;105301;1290;71048;-79
2023/02/04 10:27:59;;;;;;;;;;;;;;;1.06;85.90;102537.45;105412;1285;62024;-80
2023/02/04 10:30:45;;;;;;;;;;;;;;;1.09;85.57;102536.77;105419;1285;60259;-79
2023/02/04 10:33:34;;;;;;;;;;;;;;;1.12;85.35;102531.99;105273;1285;74144;-79
2023/02/04 10:36:21;;;;;;;;;;;;;;;1.15;85.30;102529.92;105485;1285;67355;-79
2023/02/04 10:39:10;;;;;;;;;;;;;;;1.15;85.33;102532.66;105385;1285;77347;-79
2023/02/04 10:41:57;;;;;;;;;;;;;;;1.15;85.31;102534.21;105472;1284;62179;-79
2023/02/04 10:44:46;;;;;;;;;;;;;;;1.21;85.40;102532.67;105465;1285;62031;-80
2023/02/04 10:47:34;;;;;;;;;;;;;;;1.30;85.60;102537.02;105328;1284;72955;-79
2023/02/04 10:50:25;;;;;;;;;;;;;;;1.44;85.58;102535.90;105322;1285;67654;-79
2023/02/04 10:56:20;;;;;;;;;;;;;;;1.62;85.02;102541.58;105317;1285;60485;-80
2023/02/04 10:59:15;;;;;;;;;;;;;;;1.69;85.26;102548.38;105306;1287;62107;-79
2023/02/04 11:02:13;;;;;;;;;;;;;;;1.76;85.34;102554.16;105606;1284;74133;-81
2023/02/04 11:05:00;;;;;;;;;;;;;;;1.77;84.94;102558.32;105342;1285;67543;-79
2023/02/04 11:07:46;;;;;;;;;;;;;;;1.79;84.94;102560.45;105393;1285;72400;-79
2023/02/04 11:10:33;;;;;;;;;;;;;;;1.80;85.07;102562.20;105272;1285;62075;-79
2023/02/04 11:13:24;;;;;;;;;;;;;;;1.80;84.98;102563.23;105263;1285;62012;-79
2023/02/04 11:16:24;;;;;;;;;;;;;;;1.80;84.92;102558.63;105257;1285;73969;-79
2023/02/04 11:19:11;;;;;;;;;;;;;;;1.79;85.03;102564.90;105434;1285;67578;-80
2023/02/04 11:22:04;;;;;;;;;;;;;;;1.78;85.01;102565.83;105436;1289;71430;-79
2023/02/04 11:24:51;;;;;;;;;;;;;;;1.74;85.09;102570.55;105404;1285;61829;-79
2023/02/04 11:27:38;;;;;;;;;;;;;;;1.69;84.91;102571.49;105414;1284;62066;-79
2023/02/04 11:30:29;;;;;;;;;;;;;;;1.65;85.00;102572.00;105642;1285;75717;-82
2023/02/04 11:33:21;;;;;;;;;;;;;;;1.59;84.97;102575.41;105653;1285;67279;-82
2023/02/04 11:36:10;;;;;;;;;;;;;;;1.53;84.95;102570.88;105530;1285;71700;-82
2023/02/04 11:38:56;;;;;;;;;;;;;;;1.51;85.13;102574.33;105486;1285;61974;-82
2023/02/04 11:41:46;;;;;;;;;;;;;;;1.47;85.06;102578.85;105528;1285;62003;-82
2023/02/04 11:44:32;;;;;;;;;;;;;;;1.40;85.06;102581.36;106683;1285;74185;-80
2023/02/04 11:47:19;;;;;;;;;;;;;;;1.31;84.77;102590.27;106257;1285;69764;-79
2023/02/04 11:50:37;;;;;;;;;;;;;;;1.26;84.98;102591.56;105319;1287;71262;-79
2023/02/04 11:53:27;;;;;;;;;;;;;;;1.21;84.95;102588.05;104584;1290;428579;-79
2023/02/04 11:56:17;;;;;;;;;;;;;;;1.20;85.07;102594.77;104825;1290;62827;-79
2023/02/04 11:59:03;;;;;;;;;;;;;;;1.20;85.17;102594.26;104881;1289;74081;-80
2023/02/04 12:01:50;;;;;;;;;;;;;;;1.20;85.17;102595.43;104899;1291;67367;-80
2023/02/04 12:04:36;;;;;;;;;;;;;;;1.19;85.02;102598.80;104866;1290;71191;-79
2023/02/04 12:07:24;;;;;;;;;;;;;;;1.17;85.00;102601.38;104970;1291;60847;-79
2023/02/04 12:10:11;;;;;;;;;;;;;;;1.18;84.94;102606.38;104899;1288;61988;-79
2023/02/04 12:12:58;;;;;;;;;;;;;;;1.21;84.96;102608.77;105047;1288;73954;-79
2023/02/04 12:15:51;;;;;;;;;;;;;;;1.23;84.93;102609.21;104964;1291;69280;-79
2023/02/04 12:18:38;;;;;;;;;;;;;;;1.23;84.82;102613.45;105087;1290;72196;-82
2023/02/04 12:21:24;;;;;;;;;;;;;;;1.20;84.85;102617.20;105100;1291;62159;-82
2023/02/04 12:24:10;;;;;;;;;;;;;;;1.16;84.74;102622.75;105098;1290;62122;-82
2023/02/04 12:26:56;;;;;;;;;;;;;;;1.14;84.69;102630.14;105038;1290;76030;-82
2023/02/04 12:29:42;;;;;;;;;;;;;;;1.17;84.89;102633.34;105322;1285;70209;-82
2023/02/04 12:32:29;;;;;;;;;;;;;;;1.20;84.80;102633.34;105637;1285;71386;-81
2023/02/04 12:35:15;;;;;;;;;;;;;;;1.21;84.71;102637.11;105668;1285;61820;-81
2023/02/04 12:38:01;;;;;;;;;;;;;;;1.21;84.67;102634.77;105491;1285;60406;-82
2023/02/04 12:40:47;;;;;;;;;;;;;;;1.24;84.78;102627.75;105459;1285;78191;-82
2023/02/04 12:43:33;;;;;;;;;;;;;;;1.28;84.73;102633.41;105466;1285;69073;-82
2023/02/04 12:46:20;;;;;;;;;;;;;;;1.31;84.78;102641.94;105674;1285;70305;-82
2023/02/04 12:49:06;;;;;;;;;;;;;;;1.35;84.64;102648.06;105531;1285;60204;-82
2023/02/04 12:51:57;;;;;;;;;;;;;;;1.39;84.63;102653.89;105670;1284;62000;-82
2023/02/04 12:54:43;;;;;;;;;;;;;;;1.40;84.57;102648.86;105645;1285;74161;-82
2023/02/04 12:57:30;;;;;;;;;;;;;;;1.44;84.53;102646.67;105665;1287;67303;-82
2023/02/04 13:00:17;;;;;;;;;;;;;;;1.50;84.53;102644.11;105499;1285;72548;-82
2023/02/04 13:03:04;;;;;;;;;;;;;;;1.54;84.52;102639.93;105607;1284;62718;-81
2023/02/04 13:05:50;;;;;;;;;;;;;;;1.56;84.48;102644.27;105469;1285;62076;-81
2023/02/04 13:08:36;;;;;;;;;;;;;;;1.57;84.45;102648.55;105425;1286;74259;-82
2023/02/04 13:11:22;;;;;;;;;;;;;;;1.58;84.40;102652.19;105437;1285;67642;-82
2023/02/04 13:14:09;;;;;;;;;;;;;;;1.59;84.32;102646.94;105545;1285;71768;-81
2023/02/04 13:16:55;;;;;;;;;;;;;;;1.59;84.28;102651.21;105435;1288;61853;-81
2023/02/04 13:19:41;;;;;;;;;;;;;;;1.59;84.31;102652.39;105529;1285;61940;-81
2023/02/04 13:22:27;;;;;;;;;;;;;;;1.57;84.22;102656.21;105541;1287;73942;-82
2023/02/04 13:25:13;;;;;;;;;;;;;;;1.52;84.12;102662.09;105415;1285;68126;-82
2023/02/04 13:27:59;;;;;;;;;;;;;;;1.47;84.13;102663.83;105497;1285;71181;-82
2023/02/04 13:30:45;;;;;;;;;;;;;;;1.42;84.11;102659.17;105431;1286;61972;-82
2023/02/04 13:33:32;;;;;;;;;;;;;;;1.39;84.02;102659.53;105385;1285;62891;-81
2023/02/04 13:36:18;;;;;;;;;;;;;;;1.40;83.98;102667.71;105433;1286;74067;-82
2023/02/04 13:39:04;;;;;;;;;;;;;;;1.39;83.99;102669.53;105547;1287;67371;-82
2023/02/04 13:41:50;;;;;;;;;;;;;;;1.40;83.98;102672.14;105410;1285;71140;-81
2023/02/04 13:44:36;;;;;;;;;;;;;;;1.40;83.70;102679.09;105434;1285;62332;-82
2023/02/04 13:47:23;;;;;;;;;;;;;;;1.40;83.78;102683.84;105381;1285;62051;-82
2023/02/04 13:50:09;;;;;;;;;;;;;;;1.41;83.74;102697.14;105429;1285;74661;-82
2023/02/04 13:52:55;;;;;;;;;;;;;;;1.39;83.86;102701.31;105575;1285;67487;-82
2023/02/04 13:55:41;;;;;;;;;;;;;;;1.35;83.94;102700.94;105481;1285;71171;-82
2023/02/04 13:58:28;;;;;;;;;;;;;;;1.29;83.98;102705.05;105497;1286;62248;-82
2023/02/04 14:01:14;;;;;;;;;;;;;;;1.25;83.92;102701.71;105529;1285;62093;-82
2023/02/04 14:04:00;;;;;;;;;;;;;;;1.22;83.99;102704.29;105406;1286;74069;-82
2023/02/04 14:06:46;;;;;;;;;;;;;;;1.24;84.10;102698.77;105602;1284;67261;-81
2023/02/04 14:09:32;;;;;;;;;;;;;;;1.24;84.03;102698.46;105494;1285;72123;-82
2023/02/04 14:12:19;;;;;;;;;;;;;;;1.28;84.20;102698.14;105561;1285;72736;-82
2023/02/04 14:15:05;;;;;;;;;;;;;;;1.28;84.06;102693.55;105642;1285;62099;-82
2023/02/04 14:17:51;;;;;;;;;;;;;;;1.27;83.97;102693.54;105667;1285;75383;-82